Woodland Addition, Illinois
Current Conditions -  °F | °C
As of 1:35 AM on Wednesday 22 Oct 2014 (Local Time) from KVYS Reporting Station
Clear Clear  
Wind Chill: 34°   Ceiling: Unl
Heat Index: 37°   Visibility: 10mi
Dew Point: 35°   Wind: 5mph
Humidity: 89%   Direction: 20°NNE
Pressure: 30.28"   Gusts: NA
Location:  41.4349°N, 88.8687°W
Report Text: KVYS 220635Z AUTO 02004KT 10SM CLR 03/01 A3028 RMK AO2 T00300014
Loading
Personal Weather Stations






























Interactive Weather Map
Tropical Storm Tracking
New forecast layout! Learn more

10-Day Weather Forecast

Advertisements
Track Severe Weather on mobile